Annapolis Junction, Maryland
Current Conditions -  °F | °C
As of 6:09 PM on Tuesday 21 Oct 2014 (Local Time) from KFME Reporting Station
Overcast Overcast  
Wind Chill: 59°   Ceiling: 8000
Heat Index: 59°   Visibility: 10mi
Dew Point: 52°   Wind: 0mph
Humidity: 77%   Direction: NA
Pressure: 29.85"   Gusts: NA
Location:  39.13°N, 76.8°W
Report Text: KFME 212209Z AUTO 00000KT 10SM SCT055 BKN080 OVC100 15/11 A2985 RMK AO1
Loading
Personal Weather Stations






























Interactive Weather Map New forecast layout! Learn more

10-Day Weather Forecast

Advertisements
Track Severe Weather on mobile